sensor_id;sensor_type;location;lat;lon;timestamp;P1;durP1;ratioP1;P2;durP2;ratioP2
8474;SDS011;4274;52.012;8.448;2023-07-02T00:02:09;55.37;;;9.37;;
8474;SDS011;4274;52.012;8.448;2023-07-02T00:04:34;54.00;;;9.50;;
8474;SDS011;4274;52.012;8.448;2023-07-02T00:07:00;54.17;;;9.13;;
8474;SDS011;4274;52.012;8.448;2023-07-02T00:09:25;54.33;;;9.00;;
8474;SDS011;4274;52.012;8.448;2023-07-02T00:11:51;58.13;;;10.20;;
8474;SDS011;4274;52.012;8.448;2023-07-02T00:14:16;53.97;;;10.33;;
8474;SDS011;4274;52.012;8.448;2023-07-02T00:16:43;53.63;;;10.10;;
8474;SDS011;4274;52.012;8.448;2023-07-02T00:19:10;56.80;;;10.40;;
8474;SDS011;4274;52.012;8.448;2023-07-02T00:21:39;55.00;;;10.47;;
8474;SDS011;4274;52.012;8.448;2023-07-02T00:24:06;56.80;;;9.63;;
8474;SDS011;4274;52.012;8.448;2023-07-02T00:26:34;54.77;;;10.57;;
8474;SDS011;4274;52.012;8.448;2023-07-02T00:29:00;52.60;;;9.90;;
8474;SDS011;4274;52.012;8.448;2023-07-02T00:31:28;62.30;;;10.37;;
8474;SDS011;4274;52.012;8.448;2023-07-02T00:33:54;54.70;;;10.30;;
8474;SDS011;4274;52.012;8.448;2023-07-02T00:36:20;51.23;;;9.23;;
8474;SDS011;4274;52.012;8.448;2023-07-02T00:38:46;55.87;;;9.60;;
8474;SDS011;4274;52.012;8.448;2023-07-02T00:41:13;57.37;;;9.47;;
8474;SDS011;4274;52.012;8.448;2023-07-02T00:43:39;53.37;;;9.40;;
8474;SDS011;4274;52.012;8.448;2023-07-02T00:46:08;55.60;;;9.37;;
8474;SDS011;4274;52.012;8.448;2023-07-02T00:48:43;50.90;;;9.07;;
8474;SDS011;4274;52.012;8.448;2023-07-02T00:51:11;49.30;;;8.70;;
8474;SDS011;4274;52.012;8.448;2023-07-02T00:53:40;53.03;;;8.73;;
8474;SDS011;4274;52.012;8.448;2023-07-02T00:56:05;53.13;;;9.63;;
8474;SDS011;4274;52.012;8.448;2023-07-02T00:58:32;55.57;;;8.60;;
8474;SDS011;4274;52.012;8.448;2023-07-02T01:01:02;49.87;;;8.37;;
8474;SDS011;4274;52.012;8.448;2023-07-02T01:03:27;49.70;;;8.20;;
8474;SDS011;4274;52.012;8.448;2023-07-02T01:05:54;49.10;;;8.00;;
8474;SDS011;4274;52.012;8.448;2023-07-02T01:08:19;48.40;;;8.00;;
8474;SDS011;4274;52.012;8.448;2023-07-02T01:10:45;52.10;;;9.10;;
8474;SDS011;4274;52.012;8.448;2023-07-02T01:13:12;52.20;;;9.10;;
8474;SDS011;4274;52.012;8.448;2023-07-02T01:15:42;60.10;;;8.03;;
8474;SDS011;4274;52.012;8.448;2023-07-02T01:18:09;53.30;;;9.20;;
8474;SDS011;4274;52.012;8.448;2023-07-02T01:20:36;58.27;;;8.17;;
8474;SDS011;4274;52.012;8.448;2023-07-02T01:23:03;52.60;;;8.83;;
8474;SDS011;4274;52.012;8.448;2023-07-02T01:25:29;60.53;;;8.00;;
8474;SDS011;4274;52.012;8.448;2023-07-02T01:27:55;51.57;;;7.67;;
8474;SDS011;4274;52.012;8.448;2023-07-02T01:30:23;54.60;;;8.83;;
8474;SDS011;4274;52.012;8.448;2023-07-02T01:32:49;54.03;;;8.50;;
8474;SDS011;4274;52.012;8.448;2023-07-02T01:35:15;53.67;;;9.30;;
8474;SDS011;4274;52.012;8.448;2023-07-02T01:37:41;52.53;;;8.87;;
8474;SDS011;4274;52.012;8.448;2023-07-02T01:40:07;51.07;;;8.67;;
8474;SDS011;4274;52.012;8.448;2023-07-02T01:42:33;55.37;;;8.90;;
8474;SDS011;4274;52.012;8.448;2023-07-02T01:44:59;54.20;;;7.63;;
8474;SDS011;4274;52.012;8.448;2023-07-02T01:47:25;60.83;;;8.83;;
8474;SDS011;4274;52.012;8.448;2023-07-02T01:49:51;59.77;;;9.03;;
8474;SDS011;4274;52.012;8.448;2023-07-02T01:52:16;53.07;;;9.33;;
8474;SDS011;4274;52.012;8.448;2023-07-02T01:54:42;50.47;;;9.20;;
8474;SDS011;4274;52.012;8.448;2023-07-02T01:57:09;49.27;;;8.33;;
8474;SDS011;4274;52.012;8.448;2023-07-02T01:59:34;50.03;;;8.50;;
8474;SDS011;4274;52.012;8.448;2023-07-02T02:02:00;51.83;;;9.23;;
8474;SDS011;4274;52.012;8.448;2023-07-02T02:04:26;51.70;;;8.90;;
8474;SDS011;4274;52.012;8.448;2023-07-02T02:06:52;51.93;;;9.43;;
8474;SDS011;4274;52.012;8.448;2023-07-02T02:09:18;52.67;;;9.70;;
8474;SDS011;4274;52.012;8.448;2023-07-02T02:11:44;54.97;;;10.30;;
8474;SDS011;4274;52.012;8.448;2023-07-02T02:14:12;59.67;;;12.00;;
8474;SDS011;4274;52.012;8.448;2023-07-02T02:16:38;59.60;;;10.83;;
8474;SDS011;4274;52.012;8.448;2023-07-02T02:19:04;55.60;;;11.00;;
8474;SDS011;4274;52.012;8.448;2023-07-02T02:21:30;60.03;;;10.17;;
8474;SDS011;4274;52.012;8.448;2023-07-02T02:23:56;60.50;;;10.33;;
8474;SDS011;4274;52.012;8.448;2023-07-02T02:26:22;54.17;;;10.70;;
8474;SDS011;4274;52.012;8.448;2023-07-02T02:28:48;55.53;;;12.50;;
8474;SDS011;4274;52.012;8.448;2023-07-02T02:31:14;63.60;;;11.63;;
8474;SDS011;4274;52.012;8.448;2023-07-02T02:33:40;59.30;;;11.23;;
8474;SDS011;4274;52.012;8.448;2023-07-02T02:36:06;57.83;;;11.17;;
8474;SDS011;4274;52.012;8.448;2023-07-02T02:38:31;58.70;;;12.63;;
8474;SDS011;4274;52.012;8.448;2023-07-02T02:40:58;62.90;;;11.70;;
8474;SDS011;4274;52.012;8.448;2023-07-02T02:43:24;58.40;;;12.93;;
8474;SDS011;4274;52.012;8.448;2023-07-02T02:45:49;58.07;;;11.53;;
8474;SDS011;4274;52.012;8.448;2023-07-02T02:48:15;65.83;;;13.57;;
8474;SDS011;4274;52.012;8.448;2023-07-02T02:50:40;59.17;;;10.70;;
8474;SDS011;4274;52.012;8.448;2023-07-02T02:53:08;60.10;;;13.23;;
8474;SDS011;4274;52.012;8.448;2023-07-02T02:55:34;58.17;;;12.70;;
8474;SDS011;4274;52.012;8.448;2023-07-02T02:58:01;57.07;;;11.47;;
8474;SDS011;4274;52.012;8.448;2023-07-02T03:00:27;57.80;;;12.10;;
8474;SDS011;4274;52.012;8.448;2023-07-02T03:02:52;56.10;;;11.43;;
8474;SDS011;4274;52.012;8.448;2023-07-02T03:05:18;57.27;;;11.70;;
8474;SDS011;4274;52.012;8.448;2023-07-02T03:07:43;66.27;;;11.20;;
8474;SDS011;4274;52.012;8.448;2023-07-02T03:10:09;61.23;;;12.50;;
8474;SDS011;4274;52.012;8.448;2023-07-02T03:12:35;66.20;;;12.93;;
8474;SDS011;4274;52.012;8.448;2023-07-02T03:15:00;62.30;;;12.37;;
8474;SDS011;4274;52.012;8.448;2023-07-02T03:17:26;57.23;;;11.80;;
8474;SDS011;4274;52.012;8.448;2023-07-02T03:19:52;58.53;;;11.30;;
8474;SDS011;4274;52.012;8.448;2023-07-02T03:22:17;63.97;;;12.07;;
8474;SDS011;4274;52.012;8.448;2023-07-02T03:24:43;60.70;;;11.77;;
8474;SDS011;4274;52.012;8.448;2023-07-02T03:27:09;58.30;;;11.53;;
8474;SDS011;4274;52.012;8.448;2023-07-02T03:29:34;59.37;;;12.60;;
8474;SDS011;4274;52.012;8.448;2023-07-02T03:32:01;56.30;;;11.17;;
8474;SDS011;4274;52.012;8.448;2023-07-02T03:34:27;65.27;;;13.23;;
8474;SDS011;4274;52.012;8.448;2023-07-02T03:36:52;58.90;;;11.90;;
8474;SDS011;4274;52.012;8.448;2023-07-02T03:39:18;59.30;;;11.03;;
8474;SDS011;4274;52.012;8.448;2023-07-02T03:41:44;63.53;;;11.80;;
8474;SDS011;4274;52.012;8.448;2023-07-02T03:44:10;57.70;;;11.30;;
8474;SDS011;4274;52.012;8.448;2023-07-02T03:46:35;62.10;;;11.33;;
8474;SDS011;4274;52.012;8.448;2023-07-02T03:49:04;64.60;;;11.80;;
8474;SDS011;4274;52.012;8.448;2023-07-02T03:51:30;60.87;;;12.70;;
8474;SDS011;4274;52.012;8.448;2023-07-02T03:53:57;60.00;;;11.77;;
8474;SDS011;4274;52.012;8.448;2023-07-02T03:56:23;87.10;;;14.30;;
8474;SDS011;4274;52.012;8.448;2023-07-02T03:58:49;72.00;;;12.63;;
8474;SDS011;4274;52.012;8.448;2023-07-02T04:01:14;62.07;;;12.17;;
8474;SDS011;4274;52.012;8.448;2023-07-02T04:03:41;56.20;;;11.60;;
8474;SDS011;4274;52.012;8.448;2023-07-02T04:06:12;65.00;;;12.77;;
8474;SDS011;4274;52.012;8.448;2023-07-02T04:08:38;57.07;;;11.10;;
8474;SDS011;4274;52.012;8.448;2023-07-02T04:11:03;59.63;;;10.67;;
8474;SDS011;4274;52.012;8.448;2023-07-02T04:13:29;56.40;;;9.50;;
8474;SDS011;4274;52.012;8.448;2023-07-02T04:15:54;55.30;;;8.97;;
8474;SDS011;4274;52.012;8.448;2023-07-02T04:18:20;57.77;;;9.50;;
8474;SDS011;4274;52.012;8.448;2023-07-02T04:20:45;59.53;;;8.83;;
8474;SDS011;4274;52.012;8.448;2023-07-02T04:23:11;67.20;;;8.60;;
8474;SDS011;4274;52.012;8.448;2023-07-02T04:25:37;53.70;;;7.67;;
8474;SDS011;4274;52.012;8.448;2023-07-02T04:28:02;54.17;;;7.80;;
8474;SDS011;4274;52.012;8.448;2023-07-02T04:30:28;58.40;;;8.80;;
8474;SDS011;4274;52.012;8.448;2023-07-02T04:32:53;62.37;;;8.93;;
8474;SDS011;4274;52.012;8.448;2023-07-02T04:35:19;60.17;;;9.13;;
8474;SDS011;4274;52.012;8.448;2023-07-02T04:37:45;58.67;;;8.60;;
8474;SDS011;4274;52.012;8.448;2023-07-02T04:40:10;52.23;;;7.73;;
8474;SDS011;4274;52.012;8.448;2023-07-02T04:42:36;58.43;;;9.90;;
8474;SDS011;4274;52.012;8.448;2023-07-02T04:45:06;65.13;;;9.30;;
8474;SDS011;4274;52.012;8.448;2023-07-02T04:47:33;56.47;;;8.47;;
8474;SDS011;4274;52.012;8.448;2023-07-02T04:49:59;65.80;;;8.50;;
8474;SDS011;4274;52.012;8.448;2023-07-02T04:52:25;55.27;;;7.90;;
8474;SDS011;4274;52.012;8.448;2023-07-02T04:54:51;67.80;;;8.60;;
8474;SDS011;4274;52.012;8.448;2023-07-02T04:57:16;60.07;;;7.20;;
8474;SDS011;4274;52.012;8.448;2023-07-02T04:59:42;54.43;;;6.70;;
8474;SDS011;4274;52.012;8.448;2023-07-02T05:02:08;57.93;;;7.10;;
8474;SDS011;4274;52.012;8.448;2023-07-02T05:04:33;51.00;;;6.80;;
8474;SDS011;4274;52.012;8.448;2023-07-02T05:07:00;61.53;;;6.43;;
8474;SDS011;4274;52.012;8.448;2023-07-02T05:09:26;51.90;;;6.13;;
8474;SDS011;4274;52.012;8.448;2023-07-02T05:11:51;61.80;;;6.63;;
8474;SDS011;4274;52.012;8.448;2023-07-02T05:14:17;58.90;;;6.50;;
8474;SDS011;4274;52.012;8.448;2023-07-02T05:16:42;52.00;;;5.87;;
8474;SDS011;4274;52.012;8.448;2023-07-02T05:19:08;54.67;;;6.77;;
8474;SDS011;4274;52.012;8.448;2023-07-02T05:21:34;57.27;;;7.53;;
8474;SDS011;4274;52.012;8.448;2023-07-02T05:23:59;56.63;;;7.40;;
8474;SDS011;4274;52.012;8.448;2023-07-02T05:26:25;57.10;;;7.30;;
8474;SDS011;4274;52.012;8.448;2023-07-02T05:28:52;53.90;;;6.90;;
8474;SDS011;4274;52.012;8.448;2023-07-02T05:31:17;53.20;;;6.57;;
8474;SDS011;4274;52.012;8.448;2023-07-02T05:33:43;58.27;;;6.83;;
8474;SDS011;4274;52.012;8.448;2023-07-02T05:36:08;55.20;;;6.90;;
8474;SDS011;4274;52.012;8.448;2023-07-02T05:38:34;55.77;;;7.13;;
8474;SDS011;4274;52.012;8.448;2023-07-02T05:41:00;55.37;;;6.40;;
8474;SDS011;4274;52.012;8.448;2023-07-02T05:43:26;57.30;;;7.63;;
8474;SDS011;4274;52.012;8.448;2023-07-02T05:45:52;59.23;;;6.90;;
8474;SDS011;4274;52.012;8.448;2023-07-02T05:48:17;58.53;;;7.17;;
8474;SDS011;4274;52.012;8.448;2023-07-02T05:50:43;58.60;;;7.17;;
8474;SDS011;4274;52.012;8.448;2023-07-02T05:53:09;53.50;;;7.27;;
8474;SDS011;4274;52.012;8.448;2023-07-02T05:55:35;59.50;;;7.17;;
8474;SDS011;4274;52.012;8.448;2023-07-02T05:58:01;57.20;;;7.20;;
8474;SDS011;4274;52.012;8.448;2023-07-02T06:00:28;60.43;;;7.77;;
8474;SDS011;4274;52.012;8.448;2023-07-02T06:02:53;55.60;;;7.03;;
8474;SDS011;4274;52.012;8.448;2023-07-02T06:05:19;63.13;;;6.93;;
8474;SDS011;4274;52.012;8.448;2023-07-02T06:07:45;65.60;;;7.40;;
8474;SDS011;4274;52.012;8.448;2023-07-02T06:10:11;60.63;;;6.73;;
8474;SDS011;4274;52.012;8.448;2023-07-02T06:12:36;56.20;;;6.40;;
8474;SDS011;4274;52.012;8.448;2023-07-02T06:15:02;58.37;;;6.73;;
8474;SDS011;4274;52.012;8.448;2023-07-02T06:17:28;63.30;;;7.27;;
8474;SDS011;4274;52.012;8.448;2023-07-02T06:19:55;64.47;;;7.60;;
8474;SDS011;4274;52.012;8.448;2023-07-02T06:22:21;55.00;;;7.10;;
8474;SDS011;4274;52.012;8.448;2023-07-02T06:24:47;55.13;;;6.60;;
8474;SDS011;4274;52.012;8.448;2023-07-02T06:27:12;65.87;;;7.90;;
8474;SDS011;4274;52.012;8.448;2023-07-02T06:29:38;60.10;;;7.43;;
8474;SDS011;4274;52.012;8.448;2023-07-02T06:32:04;60.70;;;7.67;;
8474;SDS011;4274;52.012;8.448;2023-07-02T06:34:29;55.40;;;6.37;;
8474;SDS011;4274;52.012;8.448;2023-07-02T06:36:55;58.90;;;6.50;;
8474;SDS011;4274;52.012;8.448;2023-07-02T06:39:21;63.00;;;7.40;;
8474;SDS011;4274;52.012;8.448;2023-07-02T06:41:46;62.50;;;7.40;;
8474;SDS011;4274;52.012;8.448;2023-07-02T06:44:12;60.80;;;7.13;;
8474;SDS011;4274;52.012;8.448;2023-07-02T06:46:37;59.27;;;7.63;;
8474;SDS011;4274;52.012;8.448;2023-07-02T06:49:03;63.23;;;7.00;;
8474;SDS011;4274;52.012;8.448;2023-07-02T06:51:28;64.93;;;7.80;;
8474;SDS011;4274;52.012;8.448;2023-07-02T06:53:54;52.20;;;6.23;;
8474;SDS011;4274;52.012;8.448;2023-07-02T06:56:20;58.10;;;6.93;;
8474;SDS011;4274;52.012;8.448;2023-07-02T06:58:45;64.93;;;7.13;;
8474;SDS011;4274;52.012;8.448;2023-07-02T07:01:11;64.47;;;7.70;;
8474;SDS011;4274;52.012;8.448;2023-07-02T07:03:37;71.53;;;7.67;;
8474;SDS011;4274;52.012;8.448;2023-07-02T07:06:03;66.20;;;7.00;;
8474;SDS011;4274;52.012;8.448;2023-07-02T07:08:28;59.03;;;6.57;;
8474;SDS011;4274;52.012;8.448;2023-07-02T07:10:54;56.53;;;7.30;;
8474;SDS011;4274;52.012;8.448;2023-07-02T07:13:20;59.47;;;6.57;;
8474;SDS011;4274;52.012;8.448;2023-07-02T07:15:45;53.47;;;6.87;;
8474;SDS011;4274;52.012;8.448;2023-07-02T07:18:11;60.03;;;7.07;;
8474;SDS011;4274;52.012;8.448;2023-07-02T07:20:38;58.73;;;6.90;;
8474;SDS011;4274;52.012;8.448;2023-07-02T07:23:05;60.73;;;7.13;;
8474;SDS011;4274;52.012;8.448;2023-07-02T07:25:31;62.40;;;7.13;;
8474;SDS011;4274;52.012;8.448;2023-07-02T07:27:57;57.43;;;6.73;;
8474;SDS011;4274;52.012;8.448;2023-07-02T07:30:24;73.23;;;7.47;;
8474;SDS011;4274;52.012;8.448;2023-07-02T07:32:50;61.77;;;7.60;;
8474;SDS011;4274;52.012;8.448;2023-07-02T07:35:20;58.50;;;6.90;;
8474;SDS011;4274;52.012;8.448;2023-07-02T07:37:47;61.93;;;6.80;;
8474;SDS011;4274;52.012;8.448;2023-07-02T07:40:13;60.23;;;6.13;;
8474;SDS011;4274;52.012;8.448;2023-07-02T07:42:39;56.47;;;7.23;;
8474;SDS011;4274;52.012;8.448;2023-07-02T07:45:05;61.40;;;7.50;;
8474;SDS011;4274;52.012;8.448;2023-07-02T07:47:31;62.83;;;7.00;;
8474;SDS011;4274;52.012;8.448;2023-07-02T07:49:57;70.97;;;7.13;;
8474;SDS011;4274;52.012;8.448;2023-07-02T07:52:22;63.80;;;8.10;;
8474;SDS011;4274;52.012;8.448;2023-07-02T07:54:48;59.33;;;7.13;;
8474;SDS011;4274;52.012;8.448;2023-07-02T07:57:14;63.60;;;7.30;;
8474;SDS011;4274;52.012;8.448;2023-07-02T07:59:39;66.73;;;8.07;;
8474;SDS011;4274;52.012;8.448;2023-07-02T08:02:05;59.87;;;7.80;;
8474;SDS011;4274;52.012;8.448;2023-07-02T08:04:31;62.37;;;6.33;;
8474;SDS011;4274;52.012;8.448;2023-07-02T08:06:57;59.50;;;6.80;;
8474;SDS011;4274;52.012;8.448;2023-07-02T08:09:25;67.50;;;7.73;;
8474;SDS011;4274;52.012;8.448;2023-07-02T08:11:51;57.73;;;6.70;;
8474;SDS011;4274;52.012;8.448;2023-07-02T08:14:16;59.27;;;7.67;;
8474;SDS011;4274;52.012;8.448;2023-07-02T08:16:43;62.00;;;7.50;;
8474;SDS011;4274;52.012;8.448;2023-07-02T08:19:09;62.33;;;7.37;;
8474;SDS011;4274;52.012;8.448;2023-07-02T08:21:35;63.83;;;7.80;;
8474;SDS011;4274;52.012;8.448;2023-07-02T08:24:01;60.40;;;6.87;;
8474;SDS011;4274;52.012;8.448;2023-07-02T08:26:27;55.67;;;7.20;;
8474;SDS011;4274;52.012;8.448;2023-07-02T08:28:53;58.90;;;6.83;;
8474;SDS011;4274;52.012;8.448;2023-07-02T08:31:19;61.67;;;7.03;;
8474;SDS011;4274;52.012;8.448;2023-07-02T08:33:44;56.10;;;6.80;;
8474;SDS011;4274;52.012;8.448;2023-07-02T08:36:10;56.20;;;6.93;;
8474;SDS011;4274;52.012;8.448;2023-07-02T08:38:35;75.73;;;6.90;;
8474;SDS011;4274;52.012;8.448;2023-07-02T08:41:04;61.90;;;6.60;;
8474;SDS011;4274;52.012;8.448;2023-07-02T08:43:30;59.33;;;7.00;;
8474;SDS011;4274;52.012;8.448;2023-07-02T08:45:56;70.63;;;7.13;;
8474;SDS011;4274;52.012;8.448;2023-07-02T08:48:21;61.00;;;6.93;;
8474;SDS011;4274;52.012;8.448;2023-07-02T08:50:49;59.37;;;6.40;;
8474;SDS011;4274;52.012;8.448;2023-07-02T08:53:15;59.20;;;6.87;;
8474;SDS011;4274;52.012;8.448;2023-07-02T08:55:41;56.20;;;6.70;;
8474;SDS011;4274;52.012;8.448;2023-07-02T08:58:06;61.83;;;8.07;;
8474;SDS011;4274;52.012;8.448;2023-07-02T09:00:32;57.13;;;6.77;;
8474;SDS011;4274;52.012;8.448;2023-07-02T09:03:14;65.27;;;7.10;;
8474;SDS011;4274;52.012;8.448;2023-07-02T09:05:47;57.90;;;7.00;;
8474;SDS011;4274;52.012;8.448;2023-07-02T09:08:26;55.50;;;6.27;;
8474;SDS011;4274;52.012;8.448;2023-07-02T09:10:53;64.03;;;6.55;;
8474;SDS011;4274;52.012;8.448;2023-07-02T09:13:19;57.87;;;6.57;;
8474;SDS011;4274;52.012;8.448;2023-07-02T09:15:45;54.90;;;5.93;;
8474;SDS011;4274;52.012;8.448;2023-07-02T09:18:17;58.13;;;6.10;;
8474;SDS011;4274;52.012;8.448;2023-07-02T09:20:44;55.03;;;6.70;;
8474;SDS011;4274;52.012;8.448;2023-07-02T09:23:10;55.50;;;5.83;;
8474;SDS011;4274;52.012;8.448;2023-07-02T09:25:37;53.07;;;6.70;;
8474;SDS011;4274;52.012;8.448;2023-07-02T09:28:17;58.77;;;6.80;;
8474;SDS011;4274;52.012;8.448;2023-07-02T09:30:51;61.27;;;7.17;;
8474;SDS011;4274;52.012;8.448;2023-07-02T09:33:18;53.63;;;5.67;;
8474;SDS011;4274;52.012;8.448;2023-07-02T09:35:44;66.80;;;7.17;;
8474;SDS011;4274;52.012;8.448;2023-07-02T09:38:10;54.70;;;6.80;;
8474;SDS011;4274;52.012;8.448;2023-07-02T09:40:44;65.63;;;6.20;;
8474;SDS011;4274;52.012;8.448;2023-07-02T09:43:12;56.97;;;6.10;;
8474;SDS011;4274;52.012;8.448;2023-07-02T09:45:40;54.97;;;6.50;;
8474;SDS011;4274;52.012;8.448;2023-07-02T09:48:08;53.50;;;6.00;;
8474;SDS011;4274;52.012;8.448;2023-07-02T09:50:35;59.60;;;6.87;;
8474;SDS011;4274;52.012;8.448;2023-07-02T09:53:03;53.80;;;5.90;;
8474;SDS011;4274;52.012;8.448;2023-07-02T09:55:29;58.40;;;5.67;;
8474;SDS011;4274;52.012;8.448;2023-07-02T09:57:54;65.97;;;6.63;;
8474;SDS011;4274;52.012;8.448;2023-07-02T10:00:20;55.70;;;6.07;;
8474;SDS011;4274;52.012;8.448;2023-07-02T10:02:49;59.57;;;6.30;;
8474;SDS011;4274;52.012;8.448;2023-07-02T10:05:31;54.60;;;6.30;;
8474;SDS011;4274;52.012;8.448;2023-07-02T10:07:59;54.57;;;6.77;;
8474;SDS011;4274;52.012;8.448;2023-07-02T10:10:38;59.03;;;5.93;;
8474;SDS011;4274;52.012;8.448;2023-07-02T10:13:04;63.20;;;6.23;;
8474;SDS011;4274;52.012;8.448;2023-07-02T10:15:30;57.60;;;6.10;;
8474;SDS011;4274;52.012;8.448;2023-07-02T10:18:01;55.03;;;6.70;;
8474;SDS011;4274;52.012;8.448;2023-07-02T10:20:31;56.07;;;6.23;;
8474;SDS011;4274;52.012;8.448;2023-07-02T10:22:59;57.20;;;6.10;;
8474;SDS011;4274;52.012;8.448;2023-07-02T10:25:30;57.00;;;6.03;;
8474;SDS011;4274;52.012;8.448;2023-07-02T10:27:59;58.23;;;6.13;;
8474;SDS011;4274;52.012;8.448;2023-07-02T10:30:32;62.97;;;5.90;;
8474;SDS011;4274;52.012;8.448;2023-07-02T10:33:14;59.20;;;6.60;;
8474;SDS011;4274;52.012;8.448;2023-07-02T10:35:41;52.33;;;5.20;;
8474;SDS011;4274;52.012;8.448;2023-07-02T10:40:55;53.43;;;5.30;;
8474;SDS011;4274;52.012;8.448;2023-07-02T10:43:28;54.27;;;6.77;;
8474;SDS011;4274;52.012;8.448;2023-07-02T10:45:55;56.20;;;6.10;;
8474;SDS011;4274;52.012;8.448;2023-07-02T10:48:21;49.73;;;5.47;;
8474;SDS011;4274;52.012;8.448;2023-07-02T10:50:47;57.80;;;6.40;;
8474;SDS011;4274;52.012;8.448;2023-07-02T10:53:16;58.80;;;6.90;;
8474;SDS011;4274;52.012;8.448;2023-07-02T10:55:43;52.40;;;5.87;;
8474;SDS011;4274;52.012;8.448;2023-07-02T10:58:10;58.93;;;6.60;;
8474;SDS011;4274;52.012;8.448;2023-07-02T11:00:44;55.33;;;6.50;;
8474;SDS011;4274;52.012;8.448;2023-07-02T11:03:17;58.43;;;5.93;;
8474;SDS011;4274;52.012;8.448;2023-07-02T11:05:44;54.23;;;5.30;;
8474;SDS011;4274;52.012;8.448;2023-07-02T11:08:10;53.63;;;5.80;;
8474;SDS011;4274;52.012;8.448;2023-07-02T11:10:36;54.00;;;6.07;;
8474;SDS011;4274;52.012;8.448;2023-07-02T11:13:15;52.77;;;5.70;;
8474;SDS011;4274;52.012;8.448;2023-07-02T11:15:42;55.60;;;6.23;;
8474;SDS011;4274;52.012;8.448;2023-07-02T11:18:14;58.47;;;5.97;;
8474;SDS011;4274;52.012;8.448;2023-07-02T11:20:41;56.20;;;6.97;;
8474;SDS011;4274;52.012;8.448;2023-07-02T11:23:21;56.03;;;6.20;;
8474;SDS011;4274;52.012;8.448;2023-07-02T11:25:58;54.43;;;6.70;;
8474;SDS011;4274;52.012;8.448;2023-07-02T11:28:25;64.63;;;6.43;;
8474;SDS011;4274;52.012;8.448;2023-07-02T11:30:51;58.67;;;5.87;;
8474;SDS011;4274;52.012;8.448;2023-07-02T11:33:17;56.90;;;7.20;;
8474;SDS011;4274;52.012;8.448;2023-07-02T11:35:43;57.03;;;6.77;;
8474;SDS011;4274;52.012;8.448;2023-07-02T11:38:09;66.00;;;6.87;;
8474;SDS011;4274;52.012;8.448;2023-07-02T11:40:38;52.90;;;6.27;;
8474;SDS011;4274;52.012;8.448;2023-07-02T11:43:04;53.40;;;6.27;;
8474;SDS011;4274;52.012;8.448;2023-07-02T11:45:31;60.17;;;6.70;;
8474;SDS011;4274;52.012;8.448;2023-07-02T11:47:56;55.40;;;6.33;;
8474;SDS011;4274;52.012;8.448;2023-07-02T11:50:22;57.93;;;5.80;;
8474;SDS011;4274;52.012;8.448;2023-07-02T11:52:48;57.10;;;5.73;;
8474;SDS011;4274;52.012;8.448;2023-07-02T11:55:13;55.50;;;5.47;;
8474;SDS011;4274;52.012;8.448;2023-07-02T11:57:39;56.13;;;6.37;;
8474;SDS011;4274;52.012;8.448;2023-07-02T12:00:05;51.90;;;5.60;;
8474;SDS011;4274;52.012;8.448;2023-07-02T12:02:31;54.50;;;5.67;;
8474;SDS011;4274;52.012;8.448;2023-07-02T12:04:56;57.43;;;6.07;;
8474;SDS011;4274;52.012;8.448;2023-07-02T12:07:22;55.13;;;5.83;;
8474;SDS011;4274;52.012;8.448;2023-07-02T12:09:47;60.03;;;6.20;;
8474;SDS011;4274;52.012;8.448;2023-07-02T12:12:13;77.03;;;6.63;;
8474;SDS011;4274;52.012;8.448;2023-07-02T12:14:39;59.97;;;5.87;;
8474;SDS011;4274;52.012;8.448;2023-07-02T12:17:08;61.37;;;6.80;;
8474;SDS011;4274;52.012;8.448;2023-07-02T12:19:34;55.13;;;5.90;;
8474;SDS011;4274;52.012;8.448;2023-07-02T12:21:59;52.57;;;5.50;;
8474;SDS011;4274;52.012;8.448;2023-07-02T12:24:25;55.80;;;5.53;;
8474;SDS011;4274;52.012;8.448;2023-07-02T12:26:51;55.50;;;5.70;;
8474;SDS011;4274;52.012;8.448;2023-07-02T12:29:16;54.53;;;6.00;;
8474;SDS011;4274;52.012;8.448;2023-07-02T12:31:42;60.43;;;5.63;;
8474;SDS011;4274;52.012;8.448;2023-07-02T12:34:09;57.10;;;6.27;;
8474;SDS011;4274;52.012;8.448;2023-07-02T12:36:34;60.73;;;6.20;;
8474;SDS011;4274;52.012;8.448;2023-07-02T12:39:00;55.90;;;5.77;;
8474;SDS011;4274;52.012;8.448;2023-07-02T12:41:25;54.30;;;5.67;;
8474;SDS011;4274;52.012;8.448;2023-07-02T12:43:51;54.80;;;6.73;;
8474;SDS011;4274;52.012;8.448;2023-07-02T12:46:16;62.67;;;6.37;;
8474;SDS011;4274;52.012;8.448;2023-07-02T12:48:42;54.43;;;5.20;;
8474;SDS011;4274;52.012;8.448;2023-07-02T12:51:07;57.37;;;5.50;;
8474;SDS011;4274;52.012;8.448;2023-07-02T12:53:33;51.73;;;5.60;;
8474;SDS011;4274;52.012;8.448;2023-07-02T12:55:58;53.63;;;5.37;;
8474;SDS011;4274;52.012;8.448;2023-07-02T12:58:24;57.20;;;6.13;;
8474;SDS011;4274;52.012;8.448;2023-07-02T13:00:50;52.00;;;5.00;;
8474;SDS011;4274;52.012;8.448;2023-07-02T13:03:16;54.33;;;5.23;;
8474;SDS011;4274;52.012;8.448;2023-07-02T13:05:42;60.23;;;4.90;;
8474;SDS011;4274;52.012;8.448;2023-07-02T13:08:09;53.77;;;5.13;;
8474;SDS011;4274;52.012;8.448;2023-07-02T13:10:35;55.07;;;5.90;;
8474;SDS011;4274;52.012;8.448;2023-07-02T13:13:00;53.87;;;5.00;;
8474;SDS011;4274;52.012;8.448;2023-07-02T13:15:26;53.77;;;5.43;;
8474;SDS011;4274;52.012;8.448;2023-07-02T13:17:52;53.30;;;5.20;;
8474;SDS011;4274;52.012;8.448;2023-07-02T13:20:17;52.40;;;5.27;;
8474;SDS011;4274;52.012;8.448;2023-07-02T13:22:43;53.67;;;5.40;;
8474;SDS011;4274;52.012;8.448;2023-07-02T13:25:09;52.43;;;4.63;;
8474;SDS011;4274;52.012;8.448;2023-07-02T13:27:34;60.50;;;5.47;;
8474;SDS011;4274;52.012;8.448;2023-07-02T13:30:00;59.77;;;6.27;;
8474;SDS011;4274;52.012;8.448;2023-07-02T13:32:26;73.30;;;6.07;;
8474;SDS011;4274;52.012;8.448;2023-07-02T13:34:51;51.20;;;5.20;;
8474;SDS011;4274;52.012;8.448;2023-07-02T13:37:17;52.77;;;4.60;;
8474;SDS011;4274;52.012;8.448;2023-07-02T13:39:46;64.57;;;6.13;;
8474;SDS011;4274;52.012;8.448;2023-07-02T13:42:14;54.53;;;5.13;;
8474;SDS011;4274;52.012;8.448;2023-07-02T13:44:40;56.27;;;5.60;;
8474;SDS011;4274;52.012;8.448;2023-07-02T13:47:06;56.30;;;6.00;;
8474;SDS011;4274;52.012;8.448;2023-07-02T13:49:32;58.40;;;5.40;;
8474;SDS011;4274;52.012;8.448;2023-07-02T13:51:58;57.73;;;6.10;;
8474;SDS011;4274;52.012;8.448;2023-07-02T13:54:24;53.77;;;4.77;;
8474;SDS011;4274;52.012;8.448;2023-07-02T13:56:50;53.20;;;5.90;;
8474;SDS011;4274;52.012;8.448;2023-07-02T13:59:17;57.83;;;5.30;;
8474;SDS011;4274;52.012;8.448;2023-07-02T14:01:43;64.23;;;5.60;;
8474;SDS011;4274;52.012;8.448;2023-07-02T14:04:10;52.30;;;5.20;;
8474;SDS011;4274;52.012;8.448;2023-07-02T14:06:37;59.03;;;6.10;;
8474;SDS011;4274;52.012;8.448;2023-07-02T14:09:02;55.90;;;5.03;;
8474;SDS011;4274;52.012;8.448;2023-07-02T14:11:29;61.43;;;5.70;;
8474;SDS011;4274;52.012;8.448;2023-07-02T14:13:55;53.90;;;5.17;;
8474;SDS011;4274;52.012;8.448;2023-07-02T14:16:21;50.63;;;4.43;;
8474;SDS011;4274;52.012;8.448;2023-07-02T14:18:47;51.70;;;4.50;;
8474;SDS011;4274;52.012;8.448;2023-07-02T14:21:13;51.87;;;5.20;;
8474;SDS011;4274;52.012;8.448;2023-07-02T14:23:38;56.50;;;4.90;;
8474;SDS011;4274;52.012;8.448;2023-07-02T14:26:04;51.57;;;4.80;;
8474;SDS011;4274;52.012;8.448;2023-07-02T14:28:30;60.83;;;5.73;;
8474;SDS011;4274;52.012;8.448;2023-07-02T14:30:56;58.67;;;5.70;;
8474;SDS011;4274;52.012;8.448;2023-07-02T14:33:23;56.20;;;5.30;;
8474;SDS011;4274;52.012;8.448;2023-07-02T14:35:49;56.30;;;5.13;;
8474;SDS011;4274;52.012;8.448;2023-07-02T14:38:14;53.43;;;5.43;;
8474;SDS011;4274;52.012;8.448;2023-07-02T14:40:40;54.87;;;5.40;;
8474;SDS011;4274;52.012;8.448;2023-07-02T14:43:06;53.40;;;5.50;;
8474;SDS011;4274;52.012;8.448;2023-07-02T14:45:32;55.13;;;5.30;;
8474;SDS011;4274;52.012;8.448;2023-07-02T14:47:57;58.50;;;4.97;;
8474;SDS011;4274;52.012;8.448;2023-07-02T14:50:25;58.40;;;5.23;;
8474;SDS011;4274;52.012;8.448;2023-07-02T14:52:51;56.23;;;4.60;;
8474;SDS011;4274;52.012;8.448;2023-07-02T14:55:16;57.30;;;6.27;;
8474;SDS011;4274;52.012;8.448;2023-07-02T14:57:42;52.60;;;5.03;;
8474;SDS011;4274;52.012;8.448;2023-07-02T15:00:08;52.27;;;5.10;;